sensor_id;sensor_type;location;lat;lon;timestamp;pressure;altitude;pressure_sealevel;temperature;humidity
15646;BME280;7922;43.622;1.476;2023-04-22T00:01:51;98996.00;;;14.32;86.24
15646;BME280;7922;43.622;1.476;2023-04-22T00:04:16;99031.66;;;14.42;86.59
15646;BME280;7922;43.622;1.476;2023-04-22T00:06:42;98986.88;;;14.24;86.20
15646;BME280;7922;43.622;1.476;2023-04-22T00:09:07;98882.22;;;13.62;86.05
15646;BME280;7922;43.622;1.476;2023-04-22T00:11:32;99013.81;;;14.32;86.30
15646;BME280;7922;43.622;1.476;2023-04-22T00:13:58;98921.63;;;13.81;85.89
15646;BME280;7922;43.622;1.476;2023-04-22T00:16:23;98975.91;;;14.15;85.33
15646;BME280;7922;43.622;1.476;2023-04-22T00:18:48;98978.75;;;14.25;85.08
15646;BME280;7922;43.622;1.476;2023-04-22T00:21:14;98842.94;;;13.53;84.94
15646;BME280;7922;43.622;1.476;2023-04-22T00:23:39;99002.44;;;14.41;84.66
15646;BME280;7922;43.622;1.476;2023-04-22T00:26:04;98793.78;;;13.22;84.24
15646;BME280;7922;43.622;1.476;2023-04-22T00:28:30;98825.56;;;13.36;84.51
15646;BME280;7922;43.622;1.476;2023-04-22T00:30:55;98872.34;;;13.76;84.09
15646;BME280;7922;43.622;1.476;2023-04-22T00:33:20;98922.38;;;14.07;83.95
15646;BME280;7922;43.622;1.476;2023-04-22T00:35:45;98931.84;;;14.11;84.17
15646;BME280;7922;43.622;1.476;2023-04-22T00:38:11;98940.34;;;14.16;83.76
15646;BME280;7922;43.622;1.476;2023-04-22T00:40:37;98832.25;;;13.42;83.90
15646;BME280;7922;43.622;1.476;2023-04-22T00:43:02;98932.31;;;14.05;84.11
15646;BME280;7922;43.622;1.476;2023-04-22T00:45:29;98940.34;;;14.16;83.63
15646;BME280;7922;43.622;1.476;2023-04-22T00:47:55;98833.28;;;13.52;83.50
15646;BME280;7922;43.622;1.476;2023-04-22T00:50:20;98943.34;;;14.12;83.58
15646;BME280;7922;43.622;1.476;2023-04-22T00:52:45;98853.25;;;13.58;83.60
15646;BME280;7922;43.622;1.476;2023-04-22T00:55:11;98905.50;;;13.95;83.51
15646;BME280;7922;43.622;1.476;2023-04-22T00:57:37;98806.81;;;13.38;83.30
15646;BME280;7922;43.622;1.476;2023-04-22T01:00:04;98929.31;;;14.10;83.23
15646;BME280;7922;43.622;1.476;2023-04-22T01:02:30;98971.00;;;14.46;82.87
15646;BME280;7922;43.622;1.476;2023-04-22T01:04:55;98879.84;;;13.94;82.60
15646;BME280;7922;43.622;1.476;2023-04-22T01:07:21;98983.78;;;14.54;82.69
15646;BME280;7922;43.622;1.476;2023-04-22T01:09:46;98912.06;;;14.03;82.37
15646;BME280;7922;43.622;1.476;2023-04-22T01:12:12;98926.06;;;14.17;82.37
15646;BME280;7922;43.622;1.476;2023-04-22T01:14:37;98825.91;;;13.56;81.98
15646;BME280;7922;43.622;1.476;2023-04-22T01:17:03;98937.13;;;14.24;81.78
15646;BME280;7922;43.622;1.476;2023-04-22T01:19:28;98924.13;;;14.19;81.83
15646;BME280;7922;43.622;1.476;2023-04-22T01:21:54;98955.53;;;14.27;81.66
15646;BME280;7922;43.622;1.476;2023-04-22T01:24:20;98889.75;;;13.92;81.70
15646;BME280;7922;43.622;1.476;2023-04-22T01:26:47;98984.84;;;14.51;81.87
15646;BME280;7922;43.622;1.476;2023-04-22T01:29:13;98934.28;;;14.14;81.89
15646;BME280;7922;43.622;1.476;2023-04-22T01:31:38;98921.13;;;14.00;81.76
15646;BME280;7922;43.622;1.476;2023-04-22T01:34:04;98811.31;;;13.37;81.48
15646;BME280;7922;43.622;1.476;2023-04-22T01:36:29;98871.97;;;13.69;81.86
15646;BME280;7922;43.622;1.476;2023-04-22T01:38:55;98923.16;;;13.96;81.99
15646;BME280;7922;43.622;1.476;2023-04-22T01:41:20;99035.19;;;14.43;81.77
15646;BME280;7922;43.622;1.476;2023-04-22T01:43:45;98954.06;;;13.99;81.66
15646;BME280;7922;43.622;1.476;2023-04-22T01:46:11;98831.75;;;13.24;81.74
15646;BME280;7922;43.622;1.476;2023-04-22T01:48:37;98991.97;;;14.03;82.01
15646;BME280;7922;43.622;1.476;2023-04-22T01:51:02;98965.63;;;13.74;82.04
15646;BME280;7922;43.622;1.476;2023-04-22T01:53:28;98979.44;;;13.79;82.15
15646;BME280;7922;43.622;1.476;2023-04-22T01:55:53;99034.41;;;14.17;81.93
15646;BME280;7922;43.622;1.476;2023-04-22T01:58:18;99041.09;;;14.23;82.01
15646;BME280;7922;43.622;1.476;2023-04-22T02:00:43;98974.44;;;13.75;81.58
15646;BME280;7922;43.622;1.476;2023-04-22T02:03:09;99021.81;;;13.95;81.88
15646;BME280;7922;43.622;1.476;2023-04-22T02:05:36;99045.00;;;14.06;81.80
15646;BME280;7922;43.622;1.476;2023-04-22T02:08:01;99099.78;;;14.34;81.98
15646;BME280;7922;43.622;1.476;2023-04-22T02:10:27;98890.16;;;13.00;81.91
15646;BME280;7922;43.622;1.476;2023-04-22T02:12:52;99053.63;;;13.96;82.23
15646;BME280;7922;43.622;1.476;2023-04-22T02:15:17;98944.94;;;13.28;82.00
15646;BME280;7922;43.622;1.476;2023-04-22T02:17:42;99075.47;;;14.02;82.41
15646;BME280;7922;43.622;1.476;2023-04-22T02:20:08;99044.50;;;13.88;82.24
15646;BME280;7922;43.622;1.476;2023-04-22T02:22:33;98995.16;;;13.58;82.42
15646;BME280;7922;43.622;1.476;2023-04-22T02:24:59;99057.25;;;13.95;82.50
15646;BME280;7922;43.622;1.476;2023-04-22T02:27:24;99018.22;;;13.70;82.81
15646;BME280;7922;43.622;1.476;2023-04-22T02:29:49;99023.53;;;13.70;82.99
15646;BME280;7922;43.622;1.476;2023-04-22T02:32:15;99100.66;;;14.21;83.03
15646;BME280;7922;43.622;1.476;2023-04-22T02:34:40;99021.31;;;13.64;83.53
15646;BME280;7922;43.622;1.476;2023-04-22T02:37:05;99088.88;;;14.00;83.77
15646;BME280;7922;43.622;1.476;2023-04-22T02:39:30;99115.81;;;14.21;84.08
15646;BME280;7922;43.622;1.476;2023-04-22T02:41:56;99056.09;;;13.87;83.96
15646;BME280;7922;43.622;1.476;2023-04-22T02:44:21;99061.41;;;13.87;84.37
15646;BME280;7922;43.622;1.476;2023-04-22T02:46:46;98977.28;;;13.35;84.59
15646;BME280;7922;43.622;1.476;2023-04-22T02:49:12;98901.75;;;12.86;84.84
15646;BME280;7922;43.622;1.476;2023-04-22T02:51:37;99066.84;;;13.85;85.04
15646;BME280;7922;43.622;1.476;2023-04-22T02:54:03;99105.41;;;14.05;85.66
15646;BME280;7922;43.622;1.476;2023-04-22T02:56:28;99097.00;;;13.73;85.68
15646;BME280;7922;43.622;1.476;2023-04-22T02:58:53;99087.84;;;13.77;85.90
15646;BME280;7922;43.622;1.476;2023-04-22T03:01:18;99058.38;;;13.55;86.64
15646;BME280;7922;43.622;1.476;2023-04-22T03:03:44;99130.50;;;14.01;87.09
15646;BME280;7922;43.622;1.476;2023-04-22T03:06:09;99092.75;;;13.70;87.27
15646;BME280;7922;43.622;1.476;2023-04-22T03:08:34;99077.31;;;13.63;87.12
15646;BME280;7922;43.622;1.476;2023-04-22T03:11:00;99107.31;;;13.78;87.19
15646;BME280;7922;43.622;1.476;2023-04-22T03:13:25;99098.91;;;13.71;87.36
15646;BME280;7922;43.622;1.476;2023-04-22T03:15:50;99072.53;;;13.55;87.58
15646;BME280;7922;43.622;1.476;2023-04-22T03:18:16;99091.91;;;13.70;87.14
15646;BME280;7922;43.622;1.476;2023-04-22T03:20:41;99012.25;;;13.16;87.52
15646;BME280;7922;43.622;1.476;2023-04-22T03:23:07;98949.16;;;12.80;87.64
15646;BME280;7922;43.622;1.476;2023-04-22T03:25:32;98985.94;;;12.98;87.47
15646;BME280;7922;43.622;1.476;2023-04-22T03:27:57;99140.31;;;13.75;87.74
15646;BME280;7922;43.622;1.476;2023-04-22T03:30:23;99154.50;;;13.88;87.83
15646;BME280;7922;43.622;1.476;2023-04-22T03:32:48;98994.78;;;12.99;87.85
15646;BME280;7922;43.622;1.476;2023-04-22T03:35:13;99080.91;;;13.49;88.12
15646;BME280;7922;43.622;1.476;2023-04-22T03:37:38;98990.31;;;12.99;88.08
15646;BME280;7922;43.622;1.476;2023-04-22T03:40:04;99104.22;;;13.71;88.26
15646;BME280;7922;43.622;1.476;2023-04-22T03:42:30;99102.88;;;13.65;88.20
15646;BME280;7922;43.622;1.476;2023-04-22T03:44:55;99102.41;;;13.71;88.22
15646;BME280;7922;43.622;1.476;2023-04-22T03:47:21;99122.34;;;13.79;88.34
15646;BME280;7922;43.622;1.476;2023-04-22T03:49:46;99092.31;;;13.51;88.10
15646;BME280;7922;43.622;1.476;2023-04-22T03:52:11;99123.63;;;13.73;88.32
15646;BME280;7922;43.622;1.476;2023-04-22T03:54:37;99095.63;;;13.55;88.14
15646;BME280;7922;43.622;1.476;2023-04-22T03:57:02;99093.16;;;13.52;88.22
15646;BME280;7922;43.622;1.476;2023-04-22T03:59:27;99065.81;;;13.37;88.06
15646;BME280;7922;43.622;1.476;2023-04-22T04:01:53;99070.94;;;13.40;87.86
15646;BME280;7922;43.622;1.476;2023-04-22T04:04:18;99110.50;;;13.57;87.91
15646;BME280;7922;43.622;1.476;2023-04-22T04:06:44;99146.09;;;13.82;87.96
15646;BME280;7922;43.622;1.476;2023-04-22T04:09:09;99040.03;;;13.24;87.96
15646;BME280;7922;43.622;1.476;2023-04-22T04:11:34;99014.78;;;13.05;88.22
15646;BME280;7922;43.622;1.476;2023-04-22T04:14:00;99117.47;;;13.72;88.64
15646;BME280;7922;43.622;1.476;2023-04-22T04:16:25;99084.75;;;13.45;88.14
15646;BME280;7922;43.622;1.476;2023-04-22T04:18:50;99002.88;;;12.97;88.27
15646;BME280;7922;43.622;1.476;2023-04-22T04:21:16;99044.16;;;13.16;88.47
15646;BME280;7922;43.622;1.476;2023-04-22T04:23:41;99130.53;;;13.63;88.91
15646;BME280;7922;43.622;1.476;2023-04-22T04:26:07;99032.56;;;13.04;89.00
15646;BME280;7922;43.622;1.476;2023-04-22T04:28:32;99012.53;;;12.86;89.10
15646;BME280;7922;43.622;1.476;2023-04-22T04:30:58;99199.56;;;13.91;89.30
15646;BME280;7922;43.622;1.476;2023-04-22T04:33:24;99197.75;;;13.92;89.27
15646;BME280;7922;43.622;1.476;2023-04-22T04:35:49;99139.69;;;13.59;89.43
15646;BME280;7922;43.622;1.476;2023-04-22T04:38:14;99047.31;;;12.95;89.06
15646;BME280;7922;43.622;1.476;2023-04-22T04:40:39;99156.06;;;13.53;89.45
15646;BME280;7922;43.622;1.476;2023-04-22T04:43:05;99148.59;;;13.45;88.99
15646;BME280;7922;43.622;1.476;2023-04-22T04:45:30;99231.50;;;14.04;88.54
15646;BME280;7922;43.622;1.476;2023-04-22T04:47:55;99178.34;;;13.77;88.63
15646;BME280;7922;43.622;1.476;2023-04-22T04:50:21;99194.84;;;13.82;88.09
15646;BME280;7922;43.622;1.476;2023-04-22T04:52:46;99202.75;;;13.96;88.24
15646;BME280;7922;43.622;1.476;2023-04-22T04:55:12;99229.47;;;14.08;88.10
15646;BME280;7922;43.622;1.476;2023-04-22T04:57:37;99185.25;;;13.80;88.24
15646;BME280;7922;43.622;1.476;2023-04-22T05:00:03;99069.78;;;13.17;87.76
15646;BME280;7922;43.622;1.476;2023-04-22T05:02:28;99146.38;;;13.64;87.87
15646;BME280;7922;43.622;1.476;2023-04-22T05:04:53;99153.44;;;13.65;87.72
15646;BME280;7922;43.622;1.476;2023-04-22T05:07:19;99195.91;;;13.80;87.69
15646;BME280;7922;43.622;1.476;2023-04-22T05:09:44;99273.28;;;14.29;87.74
15646;BME280;7922;43.622;1.476;2023-04-22T05:12:09;99217.34;;;13.91;87.55
15646;BME280;7922;43.622;1.476;2023-04-22T05:14:35;99275.75;;;14.32;87.43
15646;BME280;7922;43.622;1.476;2023-04-22T05:17:01;99233.22;;;14.05;87.76
15646;BME280;7922;43.622;1.476;2023-04-22T05:19:26;99108.25;;;13.26;87.75
15646;BME280;7922;43.622;1.476;2023-04-22T05:21:51;99297.38;;;14.40;87.74
15646;BME280;7922;43.622;1.476;2023-04-22T05:24:17;99226.19;;;13.91;87.79
15646;BME280;7922;43.622;1.476;2023-04-22T05:26:42;99307.81;;;14.43;87.45
15646;BME280;7922;43.622;1.476;2023-04-22T05:29:08;99254.53;;;14.05;87.25
15646;BME280;7922;43.622;1.476;2023-04-22T05:31:33;99186.94;;;13.68;86.94
15646;BME280;7922;43.622;1.476;2023-04-22T05:33:58;99288.53;;;14.27;87.05
15646;BME280;7922;43.622;1.476;2023-04-22T05:36:23;99297.91;;;14.33;87.20
15646;BME280;7922;43.622;1.476;2023-04-22T05:38:49;99341.63;;;14.56;86.88
15646;BME280;7922;43.622;1.476;2023-04-22T05:41:14;99334.13;;;14.48;87.05
15646;BME280;7922;43.622;1.476;2023-04-22T05:43:39;99211.53;;;13.71;87.03
15646;BME280;7922;43.622;1.476;2023-04-22T05:46:04;99300.13;;;14.13;87.08
15646;BME280;7922;43.622;1.476;2023-04-22T05:48:30;99311.53;;;14.28;86.93
15646;BME280;7922;43.622;1.476;2023-04-22T05:50:55;99305.97;;;14.18;87.23
15646;BME280;7922;43.622;1.476;2023-04-22T05:53:20;99261.81;;;13.76;87.14
15646;BME280;7922;43.622;1.476;2023-04-22T05:55:46;99330.59;;;14.22;87.24
15646;BME280;7922;43.622;1.476;2023-04-22T05:58:11;99371.56;;;14.47;87.02
15646;BME280;7922;43.622;1.476;2023-04-22T06:00:36;99394.00;;;14.57;86.76
15646;BME280;7922;43.622;1.476;2023-04-22T06:03:02;99358.00;;;14.24;86.63
15646;BME280;7922;43.622;1.476;2023-04-22T06:05:27;99418.53;;;14.62;86.84
15646;BME280;7922;43.622;1.476;2023-04-22T06:07:52;99378.69;;;14.33;86.65
15646;BME280;7922;43.622;1.476;2023-04-22T06:10:17;99388.72;;;14.42;86.85
15646;BME280;7922;43.622;1.476;2023-04-22T06:12:43;99401.28;;;14.40;86.77
15646;BME280;7922;43.622;1.476;2023-04-22T06:15:08;99457.66;;;14.61;87.06
15646;BME280;7922;43.622;1.476;2023-04-22T06:17:34;99400.91;;;14.19;87.12
15646;BME280;7922;43.622;1.476;2023-04-22T06:19:59;99314.50;;;13.71;87.00
15646;BME280;7922;43.622;1.476;2023-04-22T06:22:24;99325.81;;;13.75;86.74
15646;BME280;7922;43.622;1.476;2023-04-22T06:24:49;99285.13;;;13.45;86.97
15646;BME280;7922;43.622;1.476;2023-04-22T06:27:15;99301.56;;;13.52;87.03
15646;BME280;7922;43.622;1.476;2023-04-22T06:29:40;99374.84;;;13.97;87.06
15646;BME280;7922;43.622;1.476;2023-04-22T06:32:05;99425.34;;;14.26;86.80
15646;BME280;7922;43.622;1.476;2023-04-22T06:34:30;99436.25;;;14.36;86.95
15646;BME280;7922;43.622;1.476;2023-04-22T06:36:56;99334.56;;;13.77;86.80
15646;BME280;7922;43.622;1.476;2023-04-22T06:39:21;99256.56;;;13.35;86.45
15646;BME280;7922;43.622;1.476;2023-04-22T06:41:46;99373.50;;;14.05;86.58
15646;BME280;7922;43.622;1.476;2023-04-22T06:44:12;99490.31;;;14.78;86.64
15646;BME280;7922;43.622;1.476;2023-04-22T06:46:37;99320.13;;;13.66;86.68
15646;BME280;7922;43.622;1.476;2023-04-22T06:49:02;99459.34;;;14.50;86.66
15646;BME280;7922;43.622;1.476;2023-04-22T06:51:27;99451.41;;;14.48;86.86
15646;BME280;7922;43.622;1.476;2023-04-22T06:53:53;99502.78;;;14.77;86.44
15646;BME280;7922;43.622;1.476;2023-04-22T06:56:18;99309.81;;;13.62;85.96
15646;BME280;7922;43.622;1.476;2023-04-22T06:58:43;99505.88;;;14.71;86.26
15646;BME280;7922;43.622;1.476;2023-04-22T07:01:09;99438.78;;;14.37;86.46
15646;BME280;7922;43.622;1.476;2023-04-22T07:03:34;99477.94;;;14.64;86.02
15646;BME280;7922;43.622;1.476;2023-04-22T07:05:59;99492.00;;;14.66;86.04
15646;BME280;7922;43.622;1.476;2023-04-22T07:08:25;99452.69;;;14.42;85.82
15646;BME280;7922;43.622;1.476;2023-04-22T07:10:50;99453.13;;;14.49;86.19
15646;BME280;7922;43.622;1.476;2023-04-22T07:13:15;99512.09;;;14.84;85.92
15646;BME280;7922;43.622;1.476;2023-04-22T07:15:41;99505.47;;;14.77;86.22
15646;BME280;7922;43.622;1.476;2023-04-22T07:18:06;99333.47;;;13.79;85.50
15646;BME280;7922;43.622;1.476;2023-04-22T07:20:31;99480.69;;;14.62;85.54
15646;BME280;7922;43.622;1.476;2023-04-22T07:22:56;99533.66;;;14.94;85.57
15646;BME280;7922;43.622;1.476;2023-04-22T07:25:22;99481.84;;;14.58;86.12
15646;BME280;7922;43.622;1.476;2023-04-22T07:27:47;99360.94;;;13.80;86.05
15646;BME280;7922;43.622;1.476;2023-04-22T07:30:12;99521.56;;;14.76;86.04
15646;BME280;7922;43.622;1.476;2023-04-22T07:32:38;99323.19;;;13.60;85.75
15646;BME280;7922;43.622;1.476;2023-04-22T07:35:03;99500.44;;;14.60;86.08
15646;BME280;7922;43.622;1.476;2023-04-22T07:37:29;99392.44;;;14.00;86.18
15646;BME280;7922;43.622;1.476;2023-04-22T07:39:54;99494.75;;;14.37;87.11
15646;BME280;7922;43.622;1.476;2023-04-22T07:42:19;99554.47;;;14.62;88.10
15646;BME280;7922;43.622;1.476;2023-04-22T07:44:45;99492.97;;;14.38;88.34
15646;BME280;7922;43.622;1.476;2023-04-22T07:47:10;99405.06;;;13.84;88.42
15646;BME280;7922;43.622;1.476;2023-04-22T07:49:35;99495.03;;;14.20;89.67
15646;BME280;7922;43.622;1.476;2023-04-22T07:52:00;99491.22;;;14.24;89.25
15646;BME280;7922;43.622;1.476;2023-04-22T07:54:26;99500.19;;;14.36;88.83
15646;BME280;7922;43.622;1.476;2023-04-22T07:56:51;99486.06;;;14.21;89.05
15646;BME280;7922;43.622;1.476;2023-04-22T07:59:16;99512.66;;;14.35;89.15
15646;BME280;7922;43.622;1.476;2023-04-22T08:01:41;99430.56;;;14.01;87.57
15646;BME280;7922;43.622;1.476;2023-04-22T08:04:07;99503.69;;;14.90;87.27
15646;BME280;7922;43.622;1.476;2023-04-22T08:06:32;99546.34;;;15.69;85.55
15646;BME280;7922;43.622;1.476;2023-04-22T08:08:57;99480.81;;;15.88;84.61
15646;BME280;7922;43.622;1.476;2023-04-22T08:11:23;99402.66;;;15.74;83.61
15646;BME280;7922;43.622;1.476;2023-04-22T08:13:48;99511.91;;;16.50;82.27
15646;BME280;7922;43.622;1.476;2023-04-22T08:16:13;99481.94;;;16.34;81.31
15646;BME280;7922;43.622;1.476;2023-04-22T08:18:39;99461.53;;;16.44;79.90
15646;BME280;7922;43.622;1.476;2023-04-22T08:21:04;99545.13;;;16.83;78.90
15646;BME280;7922;43.622;1.476;2023-04-22T08:23:29;99563.19;;;16.92;79.83
15646;BME280;7922;43.622;1.476;2023-04-22T08:25:55;99530.78;;;16.60;80.31
15646;BME280;7922;43.622;1.476;2023-04-22T08:28:20;99502.63;;;16.43;79.58
15646;BME280;7922;43.622;1.476;2023-04-22T08:30:45;99486.66;;;16.30;79.66
15646;BME280;7922;43.622;1.476;2023-04-22T08:33:11;99584.19;;;16.86;80.26
15646;BME280;7922;43.622;1.476;2023-04-22T08:35:36;99556.97;;;16.68;80.15
15646;BME280;7922;43.622;1.476;2023-04-22T08:38:01;99434.03;;;16.07;79.35
15646;BME280;7922;43.622;1.476;2023-04-22T08:40:27;99548.50;;;16.74;79.23
15646;BME280;7922;43.622;1.476;2023-04-22T08:42:54;99590.44;;;16.97;78.89
15646;BME280;7922;43.622;1.476;2023-04-22T08:45:19;99531.28;;;16.65;79.26
15646;BME280;7922;43.622;1.476;2023-04-22T08:47:45;99564.66;;;16.96;78.35
15646;BME280;7922;43.622;1.476;2023-04-22T08:50:11;99555.16;;;16.92;77.38
15646;BME280;7922;43.622;1.476;2023-04-22T08:52:37;99563.50;;;17.12;78.19
15646;BME280;7922;43.622;1.476;2023-04-22T08:55:03;99497.28;;;16.67;78.06
15646;BME280;7922;43.622;1.476;2023-04-22T08:57:29;99388.94;;;16.26;77.74
15646;BME280;7922;43.622;1.476;2023-04-22T08:59:55;99574.66;;;17.52;77.57
15646;BME280;7922;43.622;1.476;2023-04-22T09:02:23;99565.38;;;17.45;76.94
15646;BME280;7922;43.622;1.476;2023-04-22T09:04:50;99397.66;;;16.17;77.96
15646;BME280;7922;43.622;1.476;2023-04-22T09:07:25;99540.34;;;16.99;78.12
15646;BME280;7922;43.622;1.476;2023-04-22T09:09:55;99475.47;;;16.60;78.06
15646;BME280;7922;43.622;1.476;2023-04-22T09:12:20;99513.47;;;17.01;77.40
15646;BME280;7922;43.622;1.476;2023-04-22T09:14:46;99468.19;;;16.63;77.35
15646;BME280;7922;43.622;1.476;2023-04-22T09:17:15;99499.03;;;16.79;76.65
15646;BME280;7922;43.622;1.476;2023-04-22T09:19:40;99529.09;;;16.83;76.82
15646;BME280;7922;43.622;1.476;2023-04-22T09:22:09;99532.22;;;16.77;77.06
15646;BME280;7922;43.622;1.476;2023-04-22T09:24:35;99562.03;;;16.83;77.64
15646;BME280;7922;43.622;1.476;2023-04-22T09:27:01;99557.88;;;16.79;77.59
15646;BME280;7922;43.622;1.476;2023-04-22T09:29:29;99593.06;;;16.86;77.91
15646;BME280;7922;43.622;1.476;2023-04-22T09:31:54;99450.06;;;16.07;78.39
15646;BME280;7922;43.622;1.476;2023-04-22T09:34:20;99578.94;;;16.84;78.55
15646;BME280;7922;43.622;1.476;2023-04-22T09:36:49;99574.16;;;16.52;78.47
15646;BME280;7922;43.622;1.476;2023-04-22T09:39:14;99426.81;;;15.47;79.02
15646;BME280;7922;43.622;1.476;2023-04-22T09:41:40;99433.66;;;15.51;79.03
15646;BME280;7922;43.622;1.476;2023-04-22T09:44:13;99481.06;;;15.73;78.85
15646;BME280;7922;43.622;1.476;2023-04-22T09:46:41;99530.50;;;15.91;79.21
15646;BME280;7922;43.622;1.476;2023-04-22T09:49:06;99602.38;;;16.20;79.90
15646;BME280;7922;43.622;1.476;2023-04-22T09:51:31;99569.88;;;16.00;80.04
15646;BME280;7922;43.622;1.476;2023-04-22T09:54:04;99563.91;;;15.97;80.36
15646;BME280;7922;43.622;1.476;2023-04-22T09:56:50;99554.88;;;15.74;80.47
15646;BME280;7922;43.622;1.476;2023-04-22T10:01:43;99587.66;;;15.88;80.85
15646;BME280;7922;43.622;1.476;2023-04-22T10:04:09;99527.06;;;15.63;80.74
15646;BME280;7922;43.622;1.476;2023-04-22T10:06:35;99487.34;;;15.46;80.43
15646;BME280;7922;43.622;1.476;2023-04-22T10:09:01;99436.38;;;15.12;80.09
15646;BME280;7922;43.622;1.476;2023-04-22T10:11:27;99503.25;;;15.60;80.30
15646;BME280;7922;43.622;1.476;2023-04-22T10:13:52;99545.56;;;15.92;80.35
15646;BME280;7922;43.622;1.476;2023-04-22T10:16:20;99550.75;;;16.06;80.11
15646;BME280;7922;43.622;1.476;2023-04-22T10:18:46;99548.63;;;15.99;79.97
15646;BME280;7922;43.622;1.476;2023-04-22T10:21:13;99577.22;;;16.22;79.52
15646;BME280;7922;43.622;1.476;2023-04-22T10:23:44;99478.72;;;15.55;79.49
15646;BME280;7922;43.622;1.476;2023-04-22T10:26:10;99564.47;;;15.89;79.84
15646;BME280;7922;43.622;1.476;2023-04-22T10:28:41;99560.06;;;16.01;79.51
15646;BME280;7922;43.622;1.476;2023-04-22T10:31:19;99475.72;;;15.60;78.96
15646;BME280;7922;43.622;1.476;2023-04-22T10:33:44;99583.41;;;16.23;78.70
15646;BME280;7922;43.622;1.476;2023-04-22T10:36:18;99461.34;;;15.37;78.67
15646;BME280;7922;43.622;1.476;2023-04-22T10:41:15;99627.13;;;16.34;79.00
15646;BME280;7922;43.622;1.476;2023-04-22T10:43:50;99446.94;;;15.27;78.99
15646;BME280;7922;43.622;1.476;2023-04-22T10:48:56;99541.91;;;15.93;79.71
15646;BME280;7922;43.622;1.476;2023-04-22T10:51:58;99626.66;;;16.41;79.01
15646;BME280;7922;43.622;1.476;2023-04-22T10:57:00;99626.03;;;16.37;79.42
15646;BME280;7922;43.622;1.476;2023-04-22T10:59:26;99598.81;;;16.19;79.35
15646;BME280;7922;43.622;1.476;2023-04-22T11:01:52;99607.88;;;16.29;79.32
15646;BME280;7922;43.622;1.476;2023-04-22T11:04:23;99602.66;;;16.15;79.50
15646;BME280;7922;43.622;1.476;2023-04-22T11:09:46;99629.81;;;16.22;78.64
15646;BME280;7922;43.622;1.476;2023-04-22T11:15:04;99627.91;;;16.24;78.01
15646;BME280;7922;43.622;1.476;2023-04-22T11:17:29;99603.22;;;16.07;78.72
15646;BME280;7922;43.622;1.476;2023-04-22T11:19:56;99590.41;;;16.00;78.42
15646;BME280;7922;43.622;1.476;2023-04-22T11:22:25;99557.41;;;15.88;77.80
15646;BME280;7922;43.622;1.476;2023-04-22T11:24:57;99577.28;;;15.97;78.09
15646;BME280;7922;43.622;1.476;2023-04-22T11:27:24;99633.97;;;16.26;78.34
15646;BME280;7922;43.622;1.476;2023-04-22T11:32:28;99618.66;;;16.41;78.02
15646;BME280;7922;43.622;1.476;2023-04-22T11:34:54;99528.00;;;16.01;77.12
15646;BME280;7922;43.622;1.476;2023-04-22T11:37:20;99562.13;;;16.34;76.73
15646;BME280;7922;43.622;1.476;2023-04-22T11:39:45;99518.25;;;16.12;76.66
15646;BME280;7922;43.622;1.476;2023-04-22T11:42:13;99586.00;;;16.24;76.70
15646;BME280;7922;43.622;1.476;2023-04-22T11:44:39;99589.38;;;16.26;76.91
15646;BME280;7922;43.622;1.476;2023-04-22T11:47:04;99621.53;;;16.37;76.88
15646;BME280;7922;43.622;1.476;2023-04-22T11:49:29;99537.25;;;15.84;77.28
15646;BME280;7922;43.622;1.476;2023-04-22T11:51:56;99483.63;;;15.61;77.22
15646;BME280;7922;43.622;1.476;2023-04-22T11:54:50;99632.63;;;16.57;77.13
15646;BME280;7922;43.622;1.476;2023-04-22T11:57:16;99575.84;;;16.17;77.93
15646;BME280;7922;43.622;1.476;2023-04-22T11:59:41;99580.00;;;16.21;77.66
15646;BME280;7922;43.622;1.476;2023-04-22T12:02:07;99614.16;;;16.41;77.32
15646;BME280;7922;43.622;1.476;2023-04-22T12:04:39;99641.22;;;16.49;77.92
15646;BME280;7922;43.622;1.476;2023-04-22T12:07:05;99618.69;;;16.28;77.66
15646;BME280;7922;43.622;1.476;2023-04-22T12:09:31;99567.25;;;15.87;77.33
15646;BME280;7922;43.622;1.476;2023-04-22T12:11:57;99647.00;;;16.43;77.57
15646;BME280;7922;43.622;1.476;2023-04-22T12:14:34;99451.28;;;15.28;77.63
15646;BME280;7922;43.622;1.476;2023-04-22T12:17:03;99585.19;;;15.98;77.62
15646;BME280;7922;43.622;1.476;2023-04-22T12:19:29;99517.16;;;15.40;78.29
15646;BME280;7922;43.622;1.476;2023-04-22T12:21:57;99610.34;;;15.43;81.48
15646;BME280;7922;43.622;1.476;2023-04-22T12:24:29;99603.56;;;14.72;84.68
15646;BME280;7922;43.622;1.476;2023-04-22T12:26:54;99613.94;;;14.50;86.35
15646;BME280;7922;43.622;1.476;2023-04-22T12:29:29;99580.88;;;14.52;86.33
15646;BME280;7922;43.622;1.476;2023-04-22T12:31:54;99615.06;;;14.45;87.51
15646;BME280;7922;43.622;1.476;2023-04-22T12:34:20;99559.19;;;13.74;89.41
15646;BME280;7922;43.622;1.476;2023-04-22T12:36:45;99633.16;;;14.12;89.40
15646;BME280;7922;43.622;1.476;2023-04-22T12:39:10;99636.47;;;14.15;89.69
15646;BME280;7922;43.622;1.476;2023-04-22T12:41:35;99627.94;;;14.10;89.63
15646;BME280;7922;43.622;1.476;2023-04-22T12:44:01;99474.34;;;13.27;89.69
15646;BME280;7922;43.622;1.476;2023-04-22T12:46:26;99627.63;;;14.15;89.70
15646;BME280;7922;43.622;1.476;2023-04-22T12:48:51;99640.00;;;14.16;89.83
15646;BME280;7922;43.622;1.476;2023-04-22T12:51:16;99509.88;;;13.26;90.84
15646;BME280;7922;43.622;1.476;2023-04-22T12:53:42;99650.00;;;14.12;90.51
15646;BME280;7922;43.622;1.476;2023-04-22T12:56:07;99516.25;;;13.21;91.01
15646;BME280;7922;43.622;1.476;2023-04-22T12:58:32;99530.59;;;13.49;90.81
15646;BME280;7922;43.622;1.476;2023-04-22T13:00:58;99540.38;;;13.34;91.42
15646;BME280;7922;43.622;1.476;2023-04-22T13:03:23;99651.25;;;13.92;91.94
15646;BME280;7922;43.622;1.476;2023-04-22T13:05:48;99647.31;;;14.12;91.69
15646;BME280;7922;43.622;1.476;2023-04-22T13:08:14;99569.06;;;13.58;92.11
15646;BME280;7922;43.622;1.476;2023-04-22T13:10:39;99649.72;;;14.17;91.50
15646;BME280;7922;43.622;1.476;2023-04-22T13:13:04;99553.97;;;13.44;91.59
15646;BME280;7922;43.622;1.476;2023-04-22T13:15:29;99567.63;;;13.38;92.46
15646;BME280;7922;43.622;1.476;2023-04-22T13:17:55;99700.31;;;14.03;92.37
15646;BME280;7922;43.622;1.476;2023-04-22T13:20:20;99691.66;;;13.99;93.00
15646;BME280;7922;43.622;1.476;2023-04-22T13:22:45;99720.66;;;13.89;93.14